Time;durP1;ratioP1;P1;durP2;ratioP2;P2;SDS_P1;SDS_P2;PMS_P1;PMS_P2;Temp;Humidity;BMP_temperature;BMP_pressure;BME280_temperature;BME280_humidity;BME280_pressure;Samples;Min_cycle;Max_cycle;Signal;HPM_P1;HPM_P2
2022/03/02 00:01:56;;;;;;;;;;;5.90;99.90;;;;;;5092298;28;20028;-77
2022/03/02 00:04:22;;;;;;;28.98;12.13;;;5.90;99.90;;;;;;5091870;28;19952;-77
2022/03/02 00:06:47;;;;;;;28.13;11.77;;;5.90;99.90;;;;;;5093610;28;20075;-77
2022/03/02 00:09:13;;;;;;;29.08;11.73;;;5.80;99.90;;;;;;5093183;28;20401;-77
2022/03/02 00:11:39;;;;;;;25.35;11.23;;;5.80;99.90;;;;;;5093844;28;20020;-77
2022/03/02 00:14:05;;;;;;;27.05;12.15;;;5.80;99.90;;;;;;5093099;28;20050;-77
2022/03/02 00:16:32;;;;;;;28.25;12.20;;;5.70;99.90;;;;;;5091682;28;20020;-77
2022/03/02 00:18:58;;;;;;;28.83;11.65;;;5.60;99.90;;;;;;5095329;28;20089;-77
2022/03/02 00:21:25;;;;;;;27.58;10.75;;;5.60;99.90;;;;;;5097085;28;20024;-77
2022/03/02 00:23:51;;;;;;;25.48;11.27;;;5.60;99.90;;;;;;5095660;28;20020;-77
2022/03/02 00:26:17;;;;;;;33.13;11.82;;;5.60;99.90;;;;;;5096819;28;20024;-77
2022/03/02 00:28:43;;;;;;;23.17;10.52;;;5.50;99.90;;;;;;5096881;28;20046;-77
2022/03/02 00:31:08;;;;;;;30.48;12.25;;;5.50;99.90;;;;;;5096942;28;20023;-77
2022/03/02 00:33:35;;;;;;;25.25;11.27;;;5.50;99.90;;;;;;5096432;28;20032;-77
2022/03/02 00:36:00;;;;;;;29.15;11.50;;;5.50;99.90;;;;;;5096827;28;20072;-77
2022/03/02 00:38:26;;;;;;;27.08;11.15;;;5.50;99.90;;;;;;5096758;28;20080;-77
2022/03/02 00:40:51;;;;;;;27.80;11.73;;;5.40;99.90;;;;;;5097273;28;20413;-77
2022/03/02 00:43:17;;;;;;;29.05;12.25;;;5.40;99.90;;;;;;5095207;28;20146;-77
2022/03/02 00:45:43;;;;;;;29.50;12.23;;;5.40;99.90;;;;;;5096301;28;20028;-77
2022/03/02 00:48:09;;;;;;;26.58;11.88;;;5.40;99.90;;;;;;5096581;28;20515;-77
2022/03/02 00:50:35;;;;;;;25.52;10.93;;;5.40;99.90;;;;;;5096739;28;20424;-79
2022/03/02 00:53:02;;;;;;;28.70;11.93;;;5.40;99.90;;;;;;5095119;28;20020;-77
2022/03/02 00:55:28;;;;;;;31.83;13.05;;;5.30;99.90;;;;;;5096371;28;20097;-77
2022/03/02 00:57:54;;;;;;;28.42;12.25;;;5.30;99.90;;;;;;5096202;28;20020;-77
2022/03/02 01:00:20;;;;;;;32.72;13.18;;;5.20;99.90;;;;;;5096245;28;20020;-73
2022/03/02 01:02:46;;;;;;;37.97;13.20;;;5.20;99.90;;;;;;5096305;28;20017;-74
2022/03/02 01:05:12;;;;;;;29.83;12.25;;;5.20;99.90;;;;;;5094848;28;20027;-73
2022/03/02 01:07:37;;;;;;;25.80;11.27;;;5.10;99.90;;;;;;5095905;28;20491;-73
2022/03/02 01:10:05;;;;;;;28.67;12.75;;;5.20;99.90;;;;;;5094943;28;20027;-72
2022/03/02 01:12:30;;;;;;;33.05;13.02;;;5.20;99.90;;;;;;5096000;28;20171;-73
2022/03/02 01:14:56;;;;;;;30.17;12.80;;;5.10;99.90;;;;;;5096328;28;20036;-74
2022/03/02 01:17:22;;;;;;;28.48;12.43;;;5.10;99.90;;;;;;5095830;28;20032;-73
2022/03/02 01:19:49;;;;;;;33.17;13.23;;;5.10;99.90;;;;;;5095850;28;20035;-73
2022/03/02 01:22:15;;;;;;;30.38;12.65;;;5.00;99.90;;;;;;5095789;28;20028;-73
2022/03/02 01:24:41;;;;;;;32.50;11.77;;;5.00;99.90;;;;;;5096147;28;20058;-74
2022/03/02 01:27:07;;;;;;;33.15;12.95;;;5.00;99.90;;;;;;5095715;28;20527;-73
2022/03/02 01:29:34;;;;;;;31.38;12.85;;;4.90;99.90;;;;;;5093640;28;20111;-74
2022/03/02 01:32:01;;;;;;;28.73;12.48;;;4.90;99.90;;;;;;5095662;28;20070;-73
2022/03/02 01:34:27;;;;;;;31.60;13.00;;;4.90;99.90;;;;;;5094412;28;20074;-73
2022/03/02 01:36:52;;;;;;;30.85;12.48;;;4.90;99.90;;;;;;5095827;28;20028;-74
2022/03/02 01:39:18;;;;;;;36.13;13.02;;;4.90;99.90;;;;;;5096131;28;20028;-73
2022/03/02 01:41:44;;;;;;;27.50;12.13;;;4.80;99.90;;;;;;5095676;28;20035;-73
2022/03/02 01:44:09;;;;;;;30.88;13.70;;;4.80;99.90;;;;;;5095511;28;20095;-73
2022/03/02 01:46:35;;;;;;;34.97;12.38;;;4.80;99.90;;;;;;5096228;28;20051;-73
2022/03/02 01:49:01;;;;;;;32.85;13.23;;;4.80;99.90;;;;;;5095420;28;20508;-74
2022/03/02 01:51:27;;;;;;;29.63;12.20;;;4.90;99.90;;;;;;5095212;28;20115;-72
2022/03/02 01:53:53;;;;;;;26.65;11.82;;;4.90;99.90;;;;;;5095306;28;20056;-72
2022/03/02 01:56:18;;;;;;;29.92;12.35;;;4.90;99.90;;;;;;5095079;28;20028;-73
2022/03/02 01:58:45;;;;;;;30.83;12.48;;;4.90;99.90;;;;;;5095448;28;20012;-73
2022/03/02 02:01:11;;;;;;;31.48;12.93;;;5.00;99.90;;;;;;5096205;28;20442;-73
2022/03/02 02:03:38;;;;;;;30.95;13.30;;;5.00;99.90;;;;;;5095348;28;20051;-73
2022/03/02 02:06:04;;;;;;;29.85;11.93;;;5.00;99.90;;;;;;5095012;28;20469;-72
2022/03/02 02:08:31;;;;;;;31.33;12.15;;;5.10;99.90;;;;;;5095348;28;20043;-74
2022/03/02 02:10:57;;;;;;;30.92;12.57;;;5.10;99.90;;;;;;5095218;28;20056;-73
2022/03/02 02:13:30;;;;;;;35.17;12.88;;;5.10;99.90;;;;;;5094960;28;20024;-74
2022/03/02 02:15:56;;;;;;;32.55;12.80;;;5.10;99.90;;;;;;5093587;28;20016;-73
2022/03/02 02:18:21;;;;;;;30.40;12.23;;;5.10;99.90;;;;;;5094750;28;20036;-73
2022/03/02 02:20:47;;;;;;;35.85;13.52;;;5.10;99.90;;;;;;5093581;28;20028;-74
2022/03/02 02:23:13;;;;;;;28.35;12.43;;;5.10;99.90;;;;;;5094686;28;20031;-73
2022/03/02 02:25:39;;;;;;;28.38;11.75;;;5.20;99.90;;;;;;5094665;28;20012;-72
2022/03/02 02:28:07;;;;;;;31.00;12.85;;;5.20;99.90;;;;;;5094593;28;20535;-73
2022/03/02 02:30:33;;;;;;;35.05;13.30;;;5.20;99.90;;;;;;5094853;28;20389;-73
2022/03/02 02:32:58;;;;;;;34.08;13.05;;;5.20;99.90;;;;;;5095079;28;20025;-73
2022/03/02 02:35:25;;;;;;;27.30;12.27;;;5.20;99.90;;;;;;5094393;28;20392;-72
2022/03/02 02:37:55;;;;;;;29.08;12.68;;;5.20;99.90;;;;;;5093492;28;20020;-73
2022/03/02 02:40:22;;;;;;;31.63;13.57;;;5.20;99.90;;;;;;5094265;28;20151;-73
2022/03/02 02:42:48;;;;;;;29.35;12.43;;;5.10;99.90;;;;;;5092983;28;20031;-72
2022/03/02 02:45:22;;;;;;;29.98;12.63;;;5.10;99.90;;;;;;5094335;28;20497;-73
2022/03/02 02:47:49;;;;;;;25.55;11.40;;;5.20;99.90;;;;;;5094166;28;20496;-73
2022/03/02 02:50:21;;;;;;;31.55;12.23;;;5.20;99.90;;;;;;5094208;28;20024;-73
2022/03/02 02:52:48;;;;;;;30.88;13.27;;;5.20;99.90;;;;;;5094195;28;20449;-73
2022/03/02 02:55:15;;;;;;;30.33;12.27;;;5.10;99.90;;;;;;5095227;28;20020;-73
2022/03/02 02:57:41;;;;;;;32.10;12.73;;;5.10;99.90;;;;;;5092768;28;20021;-73
2022/03/02 03:00:12;;;;;;;29.80;12.55;;;5.10;99.90;;;;;;5094309;28;20050;-73
2022/03/02 03:02:38;;;;;;;28.13;11.93;;;5.10;99.90;;;;;;5093933;28;20091;-73
2022/03/02 03:05:04;;;;;;;29.05;12.15;;;5.00;99.90;;;;;;5092683;28;20095;-74
2022/03/02 03:07:29;;;;;;;28.17;11.80;;;5.00;99.90;;;;;;5092717;28;20477;-73
2022/03/02 03:09:55;;;;;;;36.38;13.10;;;5.00;99.90;;;;;;5094325;28;20016;-73
2022/03/02 03:12:23;;;;;;;34.72;12.82;;;5.00;99.90;;;;;;5092541;28;20078;-74
2022/03/02 03:14:49;;;;;;;29.63;12.07;;;5.60;99.90;;;;;;5093838;28;20469;-73
2022/03/02 03:17:15;;;;;;;30.63;11.77;;;4.90;99.90;;;;;;5093537;28;20127;-73
2022/03/02 03:19:40;;;;;;;26.15;11.73;;;4.90;99.90;;;;;;5093822;28;20031;-73
2022/03/02 03:22:06;;;;;;;29.13;12.25;;;4.90;99.90;;;;;;5094196;28;20027;-73
2022/03/02 03:24:33;;;;;;;34.28;13.60;;;4.90;99.90;;;;;;5092508;28;20469;-73
2022/03/02 03:27:00;;;;;;;30.27;11.95;;;4.90;99.90;;;;;;5093788;28;20481;-73
2022/03/02 03:29:25;;;;;;;30.23;13.00;;;4.90;99.90;;;;;;5093635;28;20024;-74
2022/03/02 03:31:51;;;;;;;31.48;12.82;;;4.90;99.90;;;;;;5093934;28;20107;-73
2022/03/02 03:34:16;;;;;;;28.08;12.50;;;4.90;99.90;;;;;;5093984;28;20116;-73
2022/03/02 03:36:42;;;;;;;28.77;13.30;;;4.90;99.90;;;;;;5093686;28;20028;-74
2022/03/02 03:39:08;;;;;;;31.95;13.00;;;4.90;99.90;;;;;;5092241;28;20024;-73
2022/03/02 03:41:34;;;;;;;29.35;12.30;;;4.80;99.90;;;;;;5093306;28;20024;-72
2022/03/02 03:44:00;;;;;;;31.52;12.52;;;4.80;99.90;;;;;;5093599;28;20023;-72
2022/03/02 03:46:25;;;;;;;27.65;12.02;;;4.80;99.90;;;;;;5091949;28;20032;-73
2022/03/02 03:48:51;;;;;;;28.77;12.15;;;4.80;99.90;;;;;;5093389;28;20034;-72
2022/03/02 03:51:17;;;;;;;29.95;12.40;;;4.80;99.90;;;;;;5093357;28;20036;-73
2022/03/02 03:53:43;;;;;;;27.63;12.23;;;4.70;99.90;;;;;;5096915;28;20065;-74
2022/03/02 03:56:08;;;;;;;31.48;12.75;;;4.70;99.90;;;;;;5098213;28;20043;-73
2022/03/02 03:58:35;;;;;;;30.52;12.57;;;4.60;99.90;;;;;;5096099;28;20505;-73
2022/03/02 04:01:00;;;;;;;32.25;11.93;;;4.60;99.90;;;;;;5097780;28;20499;-73
2022/03/02 04:03:26;;;;;;;29.90;12.73;;;4.50;99.90;;;;;;5097662;28;20020;-73
2022/03/02 04:05:52;;;;;;;27.90;12.52;;;4.50;99.90;;;;;;5097629;28;20024;-73
2022/03/02 04:08:17;;;;;;;31.02;12.93;;;4.50;99.90;;;;;;5098004;28;20028;-73
2022/03/02 04:10:45;;;;;;;30.13;12.45;;;4.40;99.90;;;;;;5096111;28;20028;-73
2022/03/02 04:13:11;;;;;;;29.67;12.20;;;4.40;99.90;;;;;;5097147;28;20099;-74
2022/03/02 04:15:37;;;;;;;24.80;11.30;;;4.40;99.90;;;;;;5096057;28;20054;-73
2022/03/02 04:18:03;;;;;;;31.80;11.93;;;4.30;99.90;;;;;;5097076;28;20040;-73
2022/03/02 04:20:29;;;;;;;31.40;13.30;;;4.30;99.90;;;;;;5097038;28;20030;-73
2022/03/02 04:22:54;;;;;;;31.67;13.07;;;4.30;99.90;;;;;;5097640;28;20032;-73
2022/03/02 04:25:20;;;;;;;27.63;11.57;;;4.30;99.90;;;;;;5097307;28;20119;-74
2022/03/02 04:27:45;;;;;;;28.90;12.63;;;4.30;99.90;;;;;;5097092;28;20027;-72
2022/03/02 04:30:12;;;;;;;28.38;12.38;;;4.30;99.90;;;;;;5097453;28;20069;-72
2022/03/02 04:32:37;;;;;;;28.15;12.27;;;4.20;99.90;;;;;;5096508;28;20126;-73
2022/03/02 04:35:05;;;;;;;28.08;11.75;;;4.20;99.90;;;;;;5097104;28;20142;-73
2022/03/02 04:37:30;;;;;;;29.73;11.32;;;4.10;99.90;;;;;;5096853;28;20042;-74
2022/03/02 04:39:56;;;;;;;25.88;12.43;;;4.10;99.90;;;;;;5095175;28;20024;-74
2022/03/02 04:42:22;;;;;;;27.98;11.07;;;4.10;99.90;;;;;;5096994;28;20373;-74
2022/03/02 04:44:47;;;;;;;25.75;10.75;;;4.00;99.90;;;;;;5096750;28;20488;-74
2022/03/02 04:47:13;;;;;;;29.45;12.52;;;4.00;99.90;;;;;;5096188;28;20116;-74
2022/03/02 04:49:38;;;;;;;28.20;12.15;;;3.90;99.90;;;;;;5096830;28;20107;-74
2022/03/02 04:52:04;;;;;;;28.35;12.15;;;3.90;99.90;;;;;;5095750;28;20085;-74
2022/03/02 04:57:14;;;;;;;26.85;11.85;;;4.00;99.90;;;;;;5096600;28;20043;-74
2022/03/02 04:59:39;;;;;;;27.58;12.25;;;3.90;99.90;;;;;;5096343;28;20024;-74
2022/03/02 05:02:05;;;;;;;27.13;12.13;;;4.00;99.90;;;;;;5095658;28;20058;-74
2022/03/02 05:04:30;;;;;;;31.77;11.18;;;4.00;99.90;;;;;;5092978;28;20423;-73
2022/03/02 05:06:56;;;;;;;30.00;11.23;;;4.00;99.90;;;;;;5096201;28;20028;-73
2022/03/02 05:09:22;;;;;;;28.17;12.38;;;4.00;99.90;;;;;;5096695;28;20091;-73
2022/03/02 05:11:47;;;;;;;30.05;12.00;;;4.10;99.90;;;;;;5094873;28;20024;-73
2022/03/02 05:14:13;;;;;;;28.90;13.05;;;4.10;99.90;;;;;;5096127;28;20016;-73
2022/03/02 05:16:38;;;;;;;29.48;12.02;;;4.10;99.90;;;;;;5094716;28;20023;-74
2022/03/02 05:19:04;;;;;;;28.30;11.98;;;4.10;99.90;;;;;;5095738;28;20078;-74
2022/03/02 05:21:29;;;;;;;29.90;11.85;;;4.10;99.90;;;;;;5095778;28;20027;-73
2022/03/02 05:23:55;;;;;;;27.13;12.32;;;4.10;99.90;;;;;;5096240;28;20020;-73
2022/03/02 05:26:20;;;;;;;26.65;11.65;;;4.10;99.90;;;;;;5095800;28;20024;-73
2022/03/02 05:28:46;;;;;;;29.15;12.00;;;4.10;99.90;;;;;;5096113;28;20507;-74
2022/03/02 05:31:11;;;;;;;29.42;12.23;;;4.10;99.90;;;;;;5094589;28;20100;-73
2022/03/02 05:33:37;;;;;;;26.10;11.70;;;4.10;99.90;;;;;;5095702;28;20170;-73
2022/03/02 05:36:02;;;;;;;23.83;11.40;;;4.10;99.90;;;;;;5095111;28;20032;-73
2022/03/02 05:38:28;;;;;;;28.52;12.02;;;4.10;99.90;;;;;;5094370;28;20024;-73
2022/03/02 05:40:53;;;;;;;28.23;12.30;;;4.10;99.90;;;;;;5094398;28;20027;-73
2022/03/02 05:43:19;;;;;;;30.73;11.95;;;4.10;99.90;;;;;;5095438;28;20020;-74
2022/03/02 05:45:45;;;;;;;28.20;11.98;;;4.10;99.90;;;;;;5094136;28;20019;-73
2022/03/02 05:48:10;;;;;;;34.83;11.35;;;4.00;99.90;;;;;;5095576;28;20108;-74
2022/03/02 05:50:36;;;;;;;29.98;11.80;;;3.90;99.90;;;;;;5095296;28;20034;-74
2022/03/02 05:53:01;;;;;;;30.00;12.52;;;3.90;99.90;;;;;;5095293;28;20099;-75
2022/03/02 05:55:27;;;;;;;24.15;10.95;;;3.80;99.90;;;;;;5094975;28;20463;-75
2022/03/02 05:57:53;;;;;;;31.88;13.27;;;3.80;99.90;;;;;;5093861;28;20024;-75
2022/03/02 06:00:18;;;;;;;26.35;10.95;;;3.70;99.90;;;;;;5094787;28;20028;-75
2022/03/02 06:02:44;;;;;;;28.80;11.38;;;3.70;99.90;;;;;;5094497;28;20496;-75
2022/03/02 06:05:09;;;;;;;25.83;10.32;;;3.60;99.90;;;;;;5094936;28;20020;-75
2022/03/02 06:07:36;;;;;;;30.05;11.73;;;3.60;99.90;;;;;;5094957;28;20128;-75
2022/03/02 06:10:03;;;;;;;29.75;12.10;;;3.60;99.90;;;;;;5094989;28;20055;-75
2022/03/02 06:12:28;;;;;;;28.20;12.00;;;3.60;99.90;;;;;;5094438;28;20032;-75
2022/03/02 06:14:54;;;;;;;27.75;10.90;;;3.50;99.90;;;;;;5093978;28;20031;-75
2022/03/02 06:17:20;;;;;;;29.83;11.07;;;3.50;99.90;;;;;;5094542;28;20396;-75
2022/03/02 06:19:46;;;;;;;28.35;11.52;;;3.50;99.90;;;;;;5094926;28;20024;-75
2022/03/02 06:22:13;;;;;;;29.90;12.00;;;3.50;99.90;;;;;;5093280;28;20039;-75
2022/03/02 06:24:39;;;;;;;27.38;11.13;;;3.40;99.90;;;;;;5093323;28;20069;-75
2022/03/02 06:27:04;;;;;;;31.50;11.95;;;3.40;99.90;;;;;;5094038;28;20020;-75
2022/03/02 06:29:30;;;;;;;29.92;11.55;;;3.40;99.90;;;;;;5094514;28;20095;-75
2022/03/02 06:31:56;;;;;;;25.58;10.75;;;3.30;99.90;;;;;;5093237;28;20073;-75
2022/03/02 06:34:21;;;;;;;26.80;12.02;;;3.30;99.90;;;;;;5093951;28;20069;-75
2022/03/02 06:36:50;;;;;;;26.70;10.40;;;3.30;99.90;;;;;;5094340;28;20027;-75
2022/03/02 06:39:20;;;;;;;26.58;11.00;;;3.30;99.90;;;;;;5095053;28;20377;-75
2022/03/02 06:41:53;;;;;;;27.23;10.65;;;3.20;99.90;;;;;;5094654;28;20087;-75
2022/03/02 06:44:26;;;;;;;27.38;11.18;;;3.20;99.90;;;;;;5094855;28;20032;-75
2022/03/02 06:47:01;;;;;;;29.13;11.20;;;3.20;99.90;;;;;;5093130;28;20538;-75
2022/03/02 06:49:58;;;;;;;28.17;11.63;;;3.20;99.90;;;;;;5094027;28;20020;-76
2022/03/02 06:52:31;;;;;;;29.25;10.90;;;3.20;99.90;;;;;;5094420;28;20047;-73
2022/03/02 06:55:01;;;;;;;31.08;11.68;;;3.30;99.90;;;;;;5094553;28;20428;-73
2022/03/02 06:57:28;;;;;;;34.40;13.02;;;3.30;99.90;;;;;;5094078;28;20388;-77
2022/03/02 07:00:03;;;;;;;29.80;11.25;;;3.30;99.90;;;;;;5094327;28;20377;-73
2022/03/02 07:02:44;;;;;;;28.02;12.15;;;3.40;99.90;;;;;;5094609;28;20056;-73
2022/03/02 07:05:09;;;;;;;27.58;11.73;;;3.40;99.90;;;;;;5094683;28;20017;-74
2022/03/02 07:07:35;;;;;;;34.10;11.45;;;3.40;99.90;;;;;;5093932;28;20583;-73
2022/03/02 07:10:01;;;;;;;35.35;12.70;;;3.50;99.90;;;;;;5094439;28;20126;-73
2022/03/02 07:12:28;;;;;;;28.95;11.02;;;3.50;99.90;;;;;;5094313;28;20418;-73
2022/03/02 07:14:54;;;;;;;33.88;11.80;;;3.50;99.90;;;;;;5093777;28;20050;-73
2022/03/02 07:17:22;;;;;;;32.25;11.25;;;3.60;99.90;;;;;;5093531;28;20113;-73
2022/03/02 07:19:48;;;;;;;28.13;10.95;;;3.70;99.90;;;;;;5093649;28;20031;-73
2022/03/02 07:22:17;;;;;;;26.50;11.25;;;3.80;99.90;;;;;;5093502;28;20076;-73
2022/03/02 07:24:54;;;;;;;26.80;11.38;;;3.90;99.90;;;;;;5092340;28;20016;-73
2022/03/02 07:27:21;;;;;;;28.85;11.77;;;3.90;99.90;;;;;;5091505;28;20022;-75
2022/03/02 07:29:50;;;;;;;31.38;12.27;;;4.00;99.90;;;;;;5091773;28;20489;-75
2022/03/02 07:32:22;;;;;;;28.35;11.45;;;4.00;99.90;;;;;;5093527;28;20024;-74
2022/03/02 07:34:53;;;;;;;29.02;10.90;;;4.10;99.90;;;;;;5094046;28;20055;-74
2022/03/02 07:37:19;;;;;;;26.17;11.50;;;4.20;99.90;;;;;;5093845;28;20397;-74
2022/03/02 07:39:45;;;;;;;27.92;11.40;;;4.30;99.90;;;;;;5093876;28;20028;-74
2022/03/02 07:42:11;;;;;;;25.77;10.73;;;4.40;99.90;;;;;;5094070;28;20469;-74
2022/03/02 07:44:36;;;;;;;30.13;12.82;;;4.40;99.90;;;;;;5093741;28;20016;-75
2022/03/02 07:47:02;;;;;;;28.45;11.85;;;4.40;99.90;;;;;;5093444;28;20023;-73
2022/03/02 07:49:29;;;;;;;25.63;11.75;;;4.50;99.90;;;;;;5094255;28;20048;-74
2022/03/02 07:51:57;;;;;;;31.63;12.43;;;4.60;99.90;;;;;;5092136;28;20069;-74
2022/03/02 07:54:27;;;;;;;27.55;11.80;;;4.60;99.90;;;;;;5093078;28;20370;-75
2022/03/02 07:56:55;;;;;;;29.75;11.73;;;4.70;99.90;;;;;;5093589;28;20059;-73
2022/03/02 07:59:21;;;;;;;28.33;12.10;;;4.80;99.90;;;;;;5093512;28;20020;-73
2022/03/02 08:01:48;;;;;;;29.80;12.15;;;6.30;99.90;;;;;;5091728;28;20013;-73
2022/03/02 08:04:14;;;;;;;31.13;11.30;;;4.90;99.90;;;;;;5093213;28;20016;-75
2022/03/02 08:06:41;;;;;;;29.65;10.98;;;5.00;99.90;;;;;;5093365;28;20074;-73
2022/03/02 08:09:09;;;;;;;26.92;11.25;;;5.10;99.90;;;;;;5093478;28;20028;-73
2022/03/02 08:11:37;;;;;;;30.08;11.52;;;5.20;99.90;;;;;;5092086;28;20020;-73
2022/03/02 08:14:03;;;;;;;29.48;12.93;;;5.30;99.90;;;;;;5093318;28;20077;-73
2022/03/02 08:16:30;;;;;;;26.10;11.35;;;5.30;99.90;;;;;;5093334;28;20540;-73
2022/03/02 08:18:57;;;;;;;28.05;11.70;;;5.50;99.90;;;;;;5092952;28;20020;-73
2022/03/02 08:21:26;;;;;;;32.13;12.65;;;5.60;99.90;;;;;;5092184;28;20065;-73
2022/03/02 08:23:53;;;;;;;26.02;11.05;;;5.70;99.90;;;;;;5093424;28;20017;-73
2022/03/02 08:26:22;;;;;;;26.92;11.35;;;5.80;99.90;;;;;;5093447;28;20047;-73
2022/03/02 08:28:53;;;;;;;30.65;12.63;;;5.80;99.90;;;;;;5093312;28;20481;-73
2022/03/02 08:31:19;;;;;;;26.00;11.32;;;5.90;99.90;;;;;;5093758;28;20455;-74
2022/03/02 08:33:46;;;;;;;30.98;12.60;;;6.00;99.90;;;;;;5093046;28;20028;-73
2022/03/02 08:36:12;;;;;;;31.02;12.63;;;6.10;99.90;;;;;;5093109;28;20028;-74
2022/03/02 08:38:42;;;;;;;25.73;10.80;;;6.30;99.90;;;;;;5094675;28;20111;-74
2022/03/02 08:41:10;;;;;;;27.67;11.07;;;6.40;99.90;;;;;;5097237;28;20441;-75
2022/03/02 08:43:35;;;;;;;26.23;10.52;;;6.50;99.90;;;;;;5095699;28;20020;-74
2022/03/02 08:46:03;;;;;;;21.77;10.40;;;6.60;99.90;;;;;;5097012;28;20165;-75
2022/03/02 08:48:28;;;;;;;23.63;10.43;;;6.60;99.90;;;;;;5095271;28;20031;-74
2022/03/02 08:50:57;;;;;;;26.67;11.35;;;6.70;99.90;;;;;;5095548;28;20485;-74
2022/03/02 08:53:25;;;;;;;27.60;10.65;;;6.70;99.90;;;;;;5096529;28;20069;-74
2022/03/02 08:55:53;;;;;;;26.13;11.10;;;6.80;99.90;;;;;;5096773;28;20032;-75
2022/03/02 08:58:18;;;;;;;26.20;11.50;;;6.90;99.90;;;;;;5096832;28;20032;-74
2022/03/02 09:00:45;;;;;;;23.60;10.40;;;7.00;99.90;;;;;;5096484;28;20103;-74
2022/03/02 09:03:14;;;;;;;29.60;11.23;;;7.10;99.90;;;;;;5096530;28;20043;-74
2022/03/02 09:05:41;;;;;;;25.52;10.48;;;7.20;99.90;;;;;;5096903;28;20377;-75
2022/03/02 09:08:08;;;;;;;27.27;12.00;;;7.40;99.90;;;;;;5095127;28;20050;-75
2022/03/02 09:10:35;;;;;;;25.67;9.85;;;7.50;99.90;;;;;;5096454;28;20051;-74
2022/03/02 09:13:01;;;;;;;30.10;10.10;;;7.60;99.90;;;;;;5094920;28;20190;-75
2022/03/02 09:15:27;;;;;;;26.67;10.82;;;7.80;99.90;;;;;;5094461;28;20020;-75
2022/03/02 09:17:53;;;;;;;25.88;10.50;;;7.90;99.90;;;;;;5096039;28;20039;-74
2022/03/02 09:20:23;;;;;;;27.33;10.18;;;8.00;99.90;;;;;;5096561;28;20028;-74
2022/03/02 09:22:50;;;;;;;22.02;9.85;;;8.10;99.90;;;;;;5094791;28;20016;-74
2022/03/02 09:25:15;;;;;;;23.88;9.45;;;8.30;99.90;;;;;;5096300;28;20020;-74
2022/03/02 09:27:42;;;;;;;25.50;9.52;;;8.40;99.90;;;;;;5096389;28;20070;-75
2022/03/02 09:30:09;;;;;;;21.02;8.23;;;8.50;99.90;;;;;;5094979;28;20024;-75
2022/03/02 09:32:38;;;;;;;22.30;9.45;;;8.60;99.60;;;;;;5095789;28;20024;-75
2022/03/02 09:35:04;;;;;;;21.10;9.73;;;8.60;97.40;;;;;;5094580;28;20485;-74
2022/03/02 09:37:36;;;;;;;24.13;10.27;;;8.70;97.20;;;;;;5095979;28;20027;-74
2022/03/02 09:40:04;;;;;;;28.92;8.65;;;8.80;95.90;;;;;;5095960;28;20073;-73
2022/03/02 09:42:32;;;;;;;26.47;8.93;;;8.80;94.40;;;;;;5095752;28;20028;-75
2022/03/02 09:45:06;;;;;;;18.13;7.97;;;8.80;93.90;;;;;;5094367;28;20310;-75
2022/03/02 09:47:56;;;;;;;20.80;8.45;;;8.80;93.10;;;;;;5096038;28;20016;-75
2022/03/02 09:50:31;;;;;;;23.38;8.23;;;8.90;92.60;;;;;;5093626;28;20470;-75
2022/03/02 09:53:12;;;;;;;23.92;8.52;;;9.00;91.10;;;;;;5093586;28;20028;-75
2022/03/02 09:55:40;;;;;;;19.40;7.43;;;9.10;90.40;;;;;;5095405;28;20042;-75
2022/03/02 09:58:06;;;;;;;17.80;7.43;;;9.20;90.10;;;;;;5096058;28;20111;-75
2022/03/02 10:00:33;;;;;;;22.13;8.50;;;9.30;87.80;;;;;;5095429;28;20383;-75
2022/03/02 10:03:01;;;;;;;17.95;7.80;;;9.40;85.70;;;;;;5093672;28;20031;-75
2022/03/02 10:05:29;;;;;;;16.92;7.38;;;9.50;84.80;;;;;;5093180;28;20401;-74
2022/03/02 10:08:05;;;;;;;17.25;7.45;;;9.60;80.80;;;;;;5094934;28;20021;-74
2022/03/02 10:10:40;;;;;;;15.95;7.15;;;9.70;79.90;;;;;;5094885;28;20024;-74
2022/03/02 10:13:08;;;;;;;19.85;8.40;;;9.70;73.80;;;;;;5094884;28;20031;-75
2022/03/02 10:15:35;;;;;;;21.00;8.02;;;9.80;71.80;;;;;;5094750;28;20028;-74
2022/03/02 10:18:03;;;;;;;19.48;8.05;;;9.90;73.20;;;;;;5094396;28;20508;-74
2022/03/02 10:20:30;;;;;;;20.30;8.38;;;10.00;74.10;;;;;;5094662;28;20362;-75
2022/03/02 10:23:05;;;;;;;16.42;6.72;;;10.10;73.60;;;;;;5094042;28;20477;-75
2022/03/02 10:25:48;;;;;;;18.02;7.80;;;10.20;70.20;;;;;;5093913;28;20435;-74
2022/03/02 10:28:24;;;;;;;20.08;7.90;;;10.30;68.90;;;;;;5095350;28;20051;-75
2022/03/02 10:31:14;;;;;;;21.27;7.55;;;10.40;68.50;;;;;;5095853;28;20031;-74
2022/03/02 10:33:47;;;;;;;13.20;6.40;;;10.50;69.60;;;;;;5094392;28;20473;-75
2022/03/02 10:36:12;;;;;;;16.38;6.55;;;10.60;67.70;;;;;;5093463;28;20111;-74
2022/03/02 10:38:55;;;;;;;13.55;6.63;;;10.70;65.50;;;;;;5094704;28;20051;-74
2022/03/02 10:41:21;;;;;;;19.73;6.85;;;10.70;64.70;;;;;;5095076;28;20020;-74
2022/03/02 10:44:03;;;;;;;16.70;7.78;;;10.80;65.80;;;;;;5094893;28;20016;-75
2022/03/02 10:46:29;;;;;;;15.10;6.50;;;10.80;65.50;;;;;;5093368;28;20024;-74
2022/03/02 10:48:57;;;;;;;17.42;7.93;;;10.90;65.30;;;;;;5094278;28;20431;-74
2022/03/02 10:51:25;;;;;;;20.48;7.85;;;11.00;64.10;;;;;;5094715;28;20028;-74
2022/03/02 10:53:54;;;;;;;20.45;7.63;;;11.00;66.30;;;;;;5094733;28;20362;-75
2022/03/02 10:56:26;;;;;;;18.58;7.57;;;11.20;65.00;;;;;;5094430;28;20137;-74
2022/03/02 10:58:53;;;;;;;17.35;7.60;;;11.40;63.50;;;;;;5094184;28;20039;-74
2022/03/02 11:01:19;;;;;;;21.55;7.10;;;11.10;63.30;;;;;;5093967;28;20050;-74
2022/03/02 11:03:45;;;;;;;17.33;7.10;;;11.10;61.90;;;;;;5094255;28;20024;-74
2022/03/02 11:06:11;;;;;;;16.92;7.38;;;11.10;62.20;;;;;;5093562;28;20028;-75
2022/03/02 11:08:38;;;;;;;17.60;6.68;;;11.00;64.30;;;;;;5092569;28;20052;-74
2022/03/02 11:11:07;;;;;;;17.63;7.57;;;11.10;63.50;;;;;;5092435;28;20088;-74
2022/03/02 11:13:32;;;;;;;22.20;8.38;;;11.20;64.00;;;;;;5093789;28;20092;-75
2022/03/02 11:16:01;;;;;;;18.20;8.25;;;11.30;62.80;;;;;;5093553;28;20517;-74
2022/03/02 11:18:35;;;;;;;19.58;7.80;;;11.40;62.10;;;;;;5093660;28;20528;-74
2022/03/02 11:21:08;;;;;;;17.17;6.80;;;11.40;63.10;;;;;;5093882;28;20024;-74
2022/03/02 11:23:42;;;;;;;13.82;6.10;;;11.50;64.30;;;;;;5093212;28;20049;-75
2022/03/02 11:26:11;;;;;;;16.30;6.57;;;11.70;63.20;;;;;;5093485;28;20039;-74
2022/03/02 11:28:37;;;;;;;16.77;6.90;;;11.80;61.90;;;;;;5093477;28;20020;-75
2022/03/02 11:31:08;;;;;;;14.65;6.65;;;11.90;61.30;;;;;;5093805;28;20035;-75
2022/03/02 11:33:35;;;;;;;16.00;7.53;;;11.90;62.00;;;;;;5091813;28;20561;-74
2022/03/02 11:36:09;;;;;;;16.45;7.30;;;12.10;62.50;;;;;;5093433;28;20020;-74
2022/03/02 11:38:40;;;;;;;16.10;7.22;;;12.20;60.90;;;;;;5093786;28;20470;-74
2022/03/02 11:41:05;;;;;;;16.02;7.38;;;12.40;60.70;;;;;;5093717;28;20017;-74
2022/03/02 11:43:33;;;;;;;18.77;7.43;;;12.50;61.70;;;;;;5093319;28;20454;-74
2022/03/02 11:46:01;;;;;;;18.02;6.70;;;12.60;60.60;;;;;;5091994;28;20012;-74
2022/03/02 11:48:34;;;;;;;13.77;6.05;;;12.80;59.60;;;;;;5092131;28;20103;-74
2022/03/02 11:51:11;;;;;;;17.13;6.47;;;12.90;57.90;;;;;;5093530;28;20039;-75
2022/03/02 11:53:47;;;;;;;14.88;6.40;;;12.90;56.50;;;;;;5093523;28;20054;-75
2022/03/02 11:56:15;;;;;;;14.23;6.07;;;13.00;56.20;;;;;;5091680;28;20024;-74
2022/03/02 11:59:16;;;;;;;13.02;5.20;;;13.10;56.20;;;;;;5092636;28;20020;-75
2022/03/02 12:01:51;;;;;;;16.27;6.00;;;13.30;55.20;;;;;;5011715;28;20030;-75
2022/03/02 12:04:17;;;;;;;13.10;5.78;;;13.40;54.10;;;;;;5081732;28;20044;-75
2022/03/02 12:06:44;;;;;;;17.52;6.13;;;13.50;54.80;;;;;;5093543;28;20021;-75
2022/03/02 12:09:22;;;;;;;13.63;6.28;;;13.60;53.70;;;;;;5093521;28;20051;-74
2022/03/02 12:11:47;;;;;;;21.40;6.43;;;13.70;52.50;;;;;;5092071;28;20492;-74
2022/03/02 12:14:15;;;;;;;16.02;5.95;;;13.80;51.80;;;;;;5096447;28;20035;-76
2022/03/02 12:16:41;;;;;;;12.23;5.72;;;14.00;52.80;;;;;;5097657;28;20032;-75
2022/03/02 12:19:25;;;;;;;13.23;5.50;;;14.10;49.80;;;;;;5097909;28;20027;-75
2022/03/02 12:21:59;;;;;;;12.80;4.97;;;14.20;51.20;;;;;;5095970;28;20034;-74
2022/03/02 12:24:32;;;;;;;9.48;4.45;;;14.30;47.90;;;;;;5097678;28;20028;-74
2022/03/02 12:27:08;;;;;;;10.70;3.85;;;14.30;47.50;;;;;;5096448;28;20023;-74
2022/03/02 12:29:36;;;;;;;10.98;4.38;;;14.40;48.00;;;;;;5097365;28;20363;-75
2022/03/02 12:32:06;;;;;;;7.68;3.28;;;14.40;46.70;;;;;;5097439;28;20020;-74
2022/03/02 12:34:41;;;;;;;10.52;3.40;;;14.60;47.00;;;;;;5095958;28;20031;-74
2022/03/02 12:37:08;;;;;;;8.15;3.72;;;14.80;44.40;;;;;;5096146;28;20020;-75
2022/03/02 12:39:35;;;;;;;9.90;3.75;;;14.90;44.50;;;;;;5097394;28;20016;-77
2022/03/02 12:42:07;;;;;;;9.38;4.50;;;15.00;44.80;;;;;;5095800;28;20012;-76
2022/03/02 12:44:35;;;;;;;8.98;4.25;;;15.10;43.60;;;;;;5096170;28;20024;-77